sensor_id;sensor_type;location;lat;lon;timestamp;P1;durP1;ratioP1;P2;durP2;ratioP2
42332;SDS011;27984;51.476;5.702;2023-04-12T00:02:14;5.70;;;1.90;;
42332;SDS011;27984;51.476;5.702;2023-04-12T00:04:39;6.20;;;2.45;;
42332;SDS011;27984;51.476;5.702;2023-04-12T00:07:05;4.30;;;2.00;;
42332;SDS011;27984;51.476;5.702;2023-04-12T00:09:33;9.00;;;2.10;;
42332;SDS011;27984;51.476;5.702;2023-04-12T00:12:00;9.68;;;2.15;;
42332;SDS011;27984;51.476;5.702;2023-04-12T00:14:26;5.95;;;1.90;;
42332;SDS011;27984;51.476;5.702;2023-04-12T00:16:52;8.23;;;2.28;;
42332;SDS011;27984;51.476;5.702;2023-04-12T00:19:18;11.77;;;2.33;;
42332;SDS011;27984;51.476;5.702;2023-04-12T00:21:44;9.07;;;2.30;;
42332;SDS011;27984;51.476;5.702;2023-04-12T00:24:09;7.03;;;2.38;;
42332;SDS011;27984;51.476;5.702;2023-04-12T00:26:35;7.10;;;1.95;;
42332;SDS011;27984;51.476;5.702;2023-04-12T00:29:01;9.75;;;2.25;;
42332;SDS011;27984;51.476;5.702;2023-04-12T00:31:26;9.98;;;2.50;;
42332;SDS011;27984;51.476;5.702;2023-04-12T00:33:53;4.22;;;2.17;;
42332;SDS011;27984;51.476;5.702;2023-04-12T00:36:19;7.50;;;2.40;;
42332;SDS011;27984;51.476;5.702;2023-04-12T00:38:45;7.75;;;1.98;;
42332;SDS011;27984;51.476;5.702;2023-04-12T00:41:11;5.97;;;2.20;;
42332;SDS011;27984;51.476;5.702;2023-04-12T00:43:38;8.30;;;2.08;;
42332;SDS011;27984;51.476;5.702;2023-04-12T00:46:05;7.65;;;2.17;;
42332;SDS011;27984;51.476;5.702;2023-04-12T00:48:31;8.23;;;2.10;;
42332;SDS011;27984;51.476;5.702;2023-04-12T00:50:57;8.57;;;2.63;;
42332;SDS011;27984;51.476;5.702;2023-04-12T00:53:28;11.63;;;2.45;;
42332;SDS011;27984;51.476;5.702;2023-04-12T00:55:53;8.80;;;2.03;;
42332;SDS011;27984;51.476;5.702;2023-04-12T00:58:20;10.60;;;2.53;;
42332;SDS011;27984;51.476;5.702;2023-04-12T01:00:48;9.13;;;2.40;;
42332;SDS011;27984;51.476;5.702;2023-04-12T01:03:16;6.15;;;2.35;;
42332;SDS011;27984;51.476;5.702;2023-04-12T01:16:51;12.18;;;2.85;;
42332;SDS011;27984;51.476;5.702;2023-04-12T01:22:10;10.40;;;2.40;;
42332;SDS011;27984;51.476;5.702;2023-04-12T01:24:50;8.85;;;2.63;;
42332;SDS011;27984;51.476;5.702;2023-04-12T01:27:49;4.90;;;2.30;;
42332;SDS011;27984;51.476;5.702;2023-04-12T01:30:25;8.68;;;2.08;;
42332;SDS011;27984;51.476;5.702;2023-04-12T01:32:53;8.68;;;2.25;;
42332;SDS011;27984;51.476;5.702;2023-04-12T01:35:21;6.80;;;2.17;;
42332;SDS011;27984;51.476;5.702;2023-04-12T01:37:50;7.90;;;2.53;;
42332;SDS011;27984;51.476;5.702;2023-04-12T01:40:17;7.28;;;2.75;;
42332;SDS011;27984;51.476;5.702;2023-04-12T01:42:43;8.40;;;2.28;;
42332;SDS011;27984;51.476;5.702;2023-04-12T01:45:09;7.15;;;2.45;;
42332;SDS011;27984;51.476;5.702;2023-04-12T01:47:34;5.72;;;2.33;;
42332;SDS011;27984;51.476;5.702;2023-04-12T01:52:32;8.05;;;1.90;;
42332;SDS011;27984;51.476;5.702;2023-04-12T01:55:00;9.35;;;2.20;;
42332;SDS011;27984;51.476;5.702;2023-04-12T01:57:28;7.20;;;2.05;;
42332;SDS011;27984;51.476;5.702;2023-04-12T01:59:55;5.30;;;2.10;;
42332;SDS011;27984;51.476;5.702;2023-04-12T02:02:22;10.18;;;2.40;;
42332;SDS011;27984;51.476;5.702;2023-04-12T02:04:48;5.80;;;2.17;;
42332;SDS011;27984;51.476;5.702;2023-04-12T02:07:16;5.00;;;1.75;;
42332;SDS011;27984;51.476;5.702;2023-04-12T02:09:44;5.65;;;1.80;;
42332;SDS011;27984;51.476;5.702;2023-04-12T02:12:10;10.32;;;1.90;;
42332;SDS011;27984;51.476;5.702;2023-04-12T02:14:35;6.32;;;1.92;;
42332;SDS011;27984;51.476;5.702;2023-04-12T02:17:01;7.80;;;2.03;;
42332;SDS011;27984;51.476;5.702;2023-04-12T02:19:28;5.95;;;1.80;;
42332;SDS011;27984;51.476;5.702;2023-04-12T02:21:54;4.72;;;1.98;;
42332;SDS011;27984;51.476;5.702;2023-04-12T02:24:19;4.78;;;1.70;;
42332;SDS011;27984;51.476;5.702;2023-04-12T02:26:45;5.18;;;1.73;;
42332;SDS011;27984;51.476;5.702;2023-04-12T02:29:13;6.78;;;1.65;;
42332;SDS011;27984;51.476;5.702;2023-04-12T02:31:39;5.07;;;1.52;;
42332;SDS011;27984;51.476;5.702;2023-04-12T02:34:05;5.78;;;2.28;;
42332;SDS011;27984;51.476;5.702;2023-04-12T02:36:30;6.05;;;1.83;;
42332;SDS011;27984;51.476;5.702;2023-04-12T02:38:56;6.65;;;1.75;;
42332;SDS011;27984;51.476;5.702;2023-04-12T02:41:22;6.55;;;1.90;;
42332;SDS011;27984;51.476;5.702;2023-04-12T02:43:49;5.22;;;1.85;;
42332;SDS011;27984;51.476;5.702;2023-04-12T02:46:16;5.20;;;1.60;;
42332;SDS011;27984;51.476;5.702;2023-04-12T02:48:45;10.20;;;1.92;;
42332;SDS011;27984;51.476;5.702;2023-04-12T02:51:11;3.65;;;1.45;;
42332;SDS011;27984;51.476;5.702;2023-04-12T02:53:37;6.45;;;1.80;;
42332;SDS011;27984;51.476;5.702;2023-04-12T02:56:03;6.20;;;2.00;;
42332;SDS011;27984;51.476;5.702;2023-04-12T02:58:29;4.03;;;1.65;;
42332;SDS011;27984;51.476;5.702;2023-04-12T03:00:55;4.43;;;1.63;;
42332;SDS011;27984;51.476;5.702;2023-04-12T03:03:24;3.75;;;1.50;;
42332;SDS011;27984;51.476;5.702;2023-04-12T03:05:50;4.25;;;1.50;;
42332;SDS011;27984;51.476;5.702;2023-04-12T03:08:16;4.18;;;1.63;;
42332;SDS011;27984;51.476;5.702;2023-04-12T03:10:42;6.30;;;2.00;;
42332;SDS011;27984;51.476;5.702;2023-04-12T03:13:08;2.42;;;1.48;;
42332;SDS011;27984;51.476;5.702;2023-04-12T03:15:34;4.78;;;1.88;;
42332;SDS011;27984;51.476;5.702;2023-04-12T03:17:59;5.88;;;1.67;;
42332;SDS011;27984;51.476;5.702;2023-04-12T03:20:25;6.40;;;2.20;;
42332;SDS011;27984;51.476;5.702;2023-04-12T03:22:52;4.00;;;1.80;;
42332;SDS011;27984;51.476;5.702;2023-04-12T03:25:17;2.88;;;1.55;;
42332;SDS011;27984;51.476;5.702;2023-04-12T03:27:43;5.38;;;1.83;;
42332;SDS011;27984;51.476;5.702;2023-04-12T03:30:09;5.30;;;1.88;;
42332;SDS011;27984;51.476;5.702;2023-04-12T03:32:38;4.93;;;1.75;;
42332;SDS011;27984;51.476;5.702;2023-04-12T03:35:04;7.82;;;1.85;;
42332;SDS011;27984;51.476;5.702;2023-04-12T03:37:31;5.72;;;2.20;;
42332;SDS011;27984;51.476;5.702;2023-04-12T03:39:57;4.57;;;1.90;;
42332;SDS011;27984;51.476;5.702;2023-04-12T03:42:23;5.90;;;2.10;;
42332;SDS011;27984;51.476;5.702;2023-04-12T03:44:49;6.35;;;2.17;;
42332;SDS011;27984;51.476;5.702;2023-04-12T03:47:16;4.90;;;2.38;;
42332;SDS011;27984;51.476;5.702;2023-04-12T03:49:42;6.32;;;1.75;;
42332;SDS011;27984;51.476;5.702;2023-04-12T03:52:08;4.60;;;2.20;;
42332;SDS011;27984;51.476;5.702;2023-04-12T03:54:33;4.13;;;2.25;;
42332;SDS011;27984;51.476;5.702;2023-04-12T03:56:59;3.13;;;1.73;;
42332;SDS011;27984;51.476;5.702;2023-04-12T03:59:26;4.72;;;1.85;;
42332;SDS011;27984;51.476;5.702;2023-04-12T04:01:52;3.30;;;1.80;;
42332;SDS011;27984;51.476;5.702;2023-04-12T04:04:17;5.60;;;2.08;;
42332;SDS011;27984;51.476;5.702;2023-04-12T04:06:43;3.63;;;1.70;;
42332;SDS011;27984;51.476;5.702;2023-04-12T04:09:08;4.72;;;1.70;;
42332;SDS011;27984;51.476;5.702;2023-04-12T04:11:34;4.13;;;1.73;;
42332;SDS011;27984;51.476;5.702;2023-04-12T04:14:01;4.00;;;1.90;;
42332;SDS011;27984;51.476;5.702;2023-04-12T04:16:27;4.97;;;1.90;;
42332;SDS011;27984;51.476;5.702;2023-04-12T04:18:54;6.18;;;2.17;;
42332;SDS011;27984;51.476;5.702;2023-04-12T04:21:20;5.13;;;1.88;;
42332;SDS011;27984;51.476;5.702;2023-04-12T04:23:46;4.03;;;1.85;;
42332;SDS011;27984;51.476;5.702;2023-04-12T04:26:12;3.47;;;2.08;;
42332;SDS011;27984;51.476;5.702;2023-04-12T04:28:40;5.05;;;2.00;;
42332;SDS011;27984;51.476;5.702;2023-04-12T04:31:08;4.75;;;2.25;;
42332;SDS011;27984;51.476;5.702;2023-04-12T04:33:35;4.53;;;2.13;;
42332;SDS011;27984;51.476;5.702;2023-04-12T04:36:01;3.30;;;2.00;;
42332;SDS011;27984;51.476;5.702;2023-04-12T04:38:28;3.63;;;2.40;;
42332;SDS011;27984;51.476;5.702;2023-04-12T04:40:56;5.80;;;2.25;;
42332;SDS011;27984;51.476;5.702;2023-04-12T04:43:28;6.65;;;2.83;;
42332;SDS011;27984;51.476;5.702;2023-04-12T04:45:55;5.25;;;2.40;;
42332;SDS011;27984;51.476;5.702;2023-04-12T04:48:24;10.52;;;2.35;;
42332;SDS011;27984;51.476;5.702;2023-04-12T04:50:50;4.07;;;2.30;;
42332;SDS011;27984;51.476;5.702;2023-04-12T04:53:17;3.15;;;2.20;;
42332;SDS011;27984;51.476;5.702;2023-04-12T04:55:44;5.30;;;2.20;;
42332;SDS011;27984;51.476;5.702;2023-04-12T04:58:11;5.57;;;2.30;;
42332;SDS011;27984;51.476;5.702;2023-04-12T05:00:38;5.75;;;2.83;;
42332;SDS011;27984;51.476;5.702;2023-04-12T05:03:03;6.32;;;2.20;;
42332;SDS011;27984;51.476;5.702;2023-04-12T05:05:29;6.40;;;2.35;;
42332;SDS011;27984;51.476;5.702;2023-04-12T05:07:55;4.18;;;2.40;;
42332;SDS011;27984;51.476;5.702;2023-04-12T05:10:21;2.50;;;2.17;;
42332;SDS011;27984;51.476;5.702;2023-04-12T05:12:46;6.55;;;2.60;;
42332;SDS011;27984;51.476;5.702;2023-04-12T05:15:12;7.20;;;2.80;;
42332;SDS011;27984;51.476;5.702;2023-04-12T05:17:38;8.30;;;3.03;;
42332;SDS011;27984;51.476;5.702;2023-04-12T05:20:03;4.63;;;2.58;;
42332;SDS011;27984;51.476;5.702;2023-04-12T05:22:31;6.75;;;2.17;;
42332;SDS011;27984;51.476;5.702;2023-04-12T05:24:57;8.00;;;3.15;;
42332;SDS011;27984;51.476;5.702;2023-04-12T05:27:23;5.75;;;2.80;;
42332;SDS011;27984;51.476;5.702;2023-04-12T05:29:50;7.57;;;2.75;;
42332;SDS011;27984;51.476;5.702;2023-04-12T05:32:15;7.47;;;2.70;;
42332;SDS011;27984;51.476;5.702;2023-04-12T05:34:41;6.40;;;2.92;;
42332;SDS011;27984;51.476;5.702;2023-04-12T05:37:08;4.28;;;2.42;;
42332;SDS011;27984;51.476;5.702;2023-04-12T05:39:33;4.18;;;2.63;;
42332;SDS011;27984;51.476;5.702;2023-04-12T05:41:59;5.88;;;2.50;;
42332;SDS011;27984;51.476;5.702;2023-04-12T05:44:24;5.82;;;2.63;;
42332;SDS011;27984;51.476;5.702;2023-04-12T05:46:50;8.02;;;3.00;;
42332;SDS011;27984;51.476;5.702;2023-04-12T05:49:15;6.47;;;2.75;;
42332;SDS011;27984;51.476;5.702;2023-04-12T05:51:41;5.82;;;2.67;;
42332;SDS011;27984;51.476;5.702;2023-04-12T05:54:06;5.65;;;2.97;;
42332;SDS011;27984;51.476;5.702;2023-04-12T05:56:32;4.40;;;3.00;;
42332;SDS011;27984;51.476;5.702;2023-04-12T05:58:58;6.07;;;3.35;;
42332;SDS011;27984;51.476;5.702;2023-04-12T06:01:25;4.68;;;2.67;;
42332;SDS011;27984;51.476;5.702;2023-04-12T06:03:58;5.85;;;2.90;;
42332;SDS011;27984;51.476;5.702;2023-04-12T06:06:24;5.43;;;2.80;;
42332;SDS011;27984;51.476;5.702;2023-04-12T06:08:53;5.45;;;2.80;;
42332;SDS011;27984;51.476;5.702;2023-04-12T06:11:24;4.50;;;2.83;;
42332;SDS011;27984;51.476;5.702;2023-04-12T06:13:50;5.05;;;2.85;;
42332;SDS011;27984;51.476;5.702;2023-04-12T06:16:16;6.43;;;3.17;;
42332;SDS011;27984;51.476;5.702;2023-04-12T06:18:41;5.57;;;3.03;;
42332;SDS011;27984;51.476;5.702;2023-04-12T06:21:07;6.28;;;3.40;;
42332;SDS011;27984;51.476;5.702;2023-04-12T06:23:32;4.97;;;3.15;;
42332;SDS011;27984;51.476;5.702;2023-04-12T06:25:58;7.13;;;3.22;;
42332;SDS011;27984;51.476;5.702;2023-04-12T06:28:23;4.72;;;3.08;;
42332;SDS011;27984;51.476;5.702;2023-04-12T06:30:49;6.70;;;3.25;;
42332;SDS011;27984;51.476;5.702;2023-04-12T06:33:14;7.90;;;3.20;;
42332;SDS011;27984;51.476;5.702;2023-04-12T06:35:40;6.45;;;3.20;;
42332;SDS011;27984;51.476;5.702;2023-04-12T06:38:06;4.97;;;3.20;;
42332;SDS011;27984;51.476;5.702;2023-04-12T06:40:31;8.95;;;3.42;;
42332;SDS011;27984;51.476;5.702;2023-04-12T06:42:57;7.90;;;3.30;;
42332;SDS011;27984;51.476;5.702;2023-04-12T06:45:23;7.85;;;3.30;;
42332;SDS011;27984;51.476;5.702;2023-04-12T06:47:48;5.22;;;3.42;;
42332;SDS011;27984;51.476;5.702;2023-04-12T06:50:14;4.82;;;3.20;;
42332;SDS011;27984;51.476;5.702;2023-04-12T06:52:39;6.35;;;3.55;;
42332;SDS011;27984;51.476;5.702;2023-04-12T06:55:05;7.05;;;3.50;;
42332;SDS011;27984;51.476;5.702;2023-04-12T06:57:31;8.95;;;3.85;;
42332;SDS011;27984;51.476;5.702;2023-04-12T06:59:57;5.47;;;3.83;;
42332;SDS011;27984;51.476;5.702;2023-04-12T07:02:22;7.32;;;3.97;;
42332;SDS011;27984;51.476;5.702;2023-04-12T07:04:54;6.28;;;4.05;;
42332;SDS011;27984;51.476;5.702;2023-04-12T07:07:19;5.75;;;4.07;;
42332;SDS011;27984;51.476;5.702;2023-04-12T07:09:45;7.32;;;3.97;;
42332;SDS011;27984;51.476;5.702;2023-04-12T07:12:11;7.38;;;3.65;;
42332;SDS011;27984;51.476;5.702;2023-04-12T07:14:37;5.28;;;3.22;;
42332;SDS011;27984;51.476;5.702;2023-04-12T07:17:03;8.13;;;3.17;;
42332;SDS011;27984;51.476;5.702;2023-04-12T07:19:29;6.00;;;3.25;;
42332;SDS011;27984;51.476;5.702;2023-04-12T07:21:55;6.05;;;3.08;;
42332;SDS011;27984;51.476;5.702;2023-04-12T07:24:21;6.43;;;2.95;;
42332;SDS011;27984;51.476;5.702;2023-04-12T07:26:46;6.13;;;3.15;;
42332;SDS011;27984;51.476;5.702;2023-04-12T07:29:12;4.25;;;3.20;;
42332;SDS011;27984;51.476;5.702;2023-04-12T07:31:37;6.65;;;2.85;;
42332;SDS011;27984;51.476;5.702;2023-04-12T07:34:03;4.88;;;2.75;;
42332;SDS011;27984;51.476;5.702;2023-04-12T07:36:28;3.22;;;2.40;;
42332;SDS011;27984;51.476;5.702;2023-04-12T07:38:55;5.35;;;2.90;;
42332;SDS011;27984;51.476;5.702;2023-04-12T07:41:21;5.22;;;2.75;;
42332;SDS011;27984;51.476;5.702;2023-04-12T07:43:46;4.97;;;2.60;;
42332;SDS011;27984;51.476;5.702;2023-04-12T07:46:12;3.67;;;3.20;;
42332;SDS011;27984;51.476;5.702;2023-04-12T07:48:38;6.82;;;3.42;;
42332;SDS011;27984;51.476;5.702;2023-04-12T07:51:03;7.63;;;3.78;;
42332;SDS011;27984;51.476;5.702;2023-04-12T07:53:29;7.15;;;3.22;;
42332;SDS011;27984;51.476;5.702;2023-04-12T07:55:55;5.00;;;3.03;;
42332;SDS011;27984;51.476;5.702;2023-04-12T07:58:21;6.97;;;2.95;;
42332;SDS011;27984;51.476;5.702;2023-04-12T08:00:48;6.45;;;2.80;;
42332;SDS011;27984;51.476;5.702;2023-04-12T08:03:15;5.28;;;3.15;;
42332;SDS011;27984;51.476;5.702;2023-04-12T08:05:42;6.65;;;3.33;;
42332;SDS011;27984;51.476;5.702;2023-04-12T08:08:08;8.85;;;3.28;;
42332;SDS011;27984;51.476;5.702;2023-04-12T08:10:34;10.10;;;3.50;;
42332;SDS011;27984;51.476;5.702;2023-04-12T08:13:01;7.35;;;3.50;;
42332;SDS011;27984;51.476;5.702;2023-04-12T08:15:27;8.45;;;3.63;;
42332;SDS011;27984;51.476;5.702;2023-04-12T08:17:53;8.57;;;3.53;;
42332;SDS011;27984;51.476;5.702;2023-04-12T08:20:18;10.88;;;3.50;;
42332;SDS011;27984;51.476;5.702;2023-04-12T08:22:44;9.40;;;3.30;;
42332;SDS011;27984;51.476;5.702;2023-04-12T08:25:10;8.32;;;3.40;;
42332;SDS011;27984;51.476;5.702;2023-04-12T08:27:38;8.90;;;3.67;;
42332;SDS011;27984;51.476;5.702;2023-04-12T08:30:05;5.93;;;3.42;;
42332;SDS011;27984;51.476;5.702;2023-04-12T08:32:32;10.15;;;3.45;;
42332;SDS011;27984;51.476;5.702;2023-04-12T08:34:58;11.45;;;3.40;;
42332;SDS011;27984;51.476;5.702;2023-04-12T08:37:24;8.60;;;3.55;;
42332;SDS011;27984;51.476;5.702;2023-04-12T08:39:50;8.70;;;3.75;;
42332;SDS011;27984;51.476;5.702;2023-04-12T08:42:15;9.23;;;3.85;;
42332;SDS011;27984;51.476;5.702;2023-04-12T08:44:42;11.07;;;3.72;;
42332;SDS011;27984;51.476;5.702;2023-04-12T08:47:08;7.82;;;3.42;;
42332;SDS011;27984;51.476;5.702;2023-04-12T08:49:35;8.88;;;3.40;;
42332;SDS011;27984;51.476;5.702;2023-04-12T08:52:02;7.32;;;2.58;;
42332;SDS011;27984;51.476;5.702;2023-04-12T08:54:32;11.00;;;2.95;;
42332;SDS011;27984;51.476;5.702;2023-04-12T08:57:08;13.48;;;3.25;;
42332;SDS011;27984;51.476;5.702;2023-04-12T08:59:35;12.70;;;3.03;;
42332;SDS011;27984;51.476;5.702;2023-04-12T09:02:02;8.93;;;3.38;;
42332;SDS011;27984;51.476;5.702;2023-04-12T09:04:28;5.90;;;3.13;;
42332;SDS011;27984;51.476;5.702;2023-04-12T09:06:54;11.07;;;3.15;;
42332;SDS011;27984;51.476;5.702;2023-04-12T09:09:39;8.85;;;3.03;;
42332;SDS011;27984;51.476;5.702;2023-04-12T09:12:06;9.77;;;2.80;;
42332;SDS011;27984;51.476;5.702;2023-04-12T09:14:32;7.30;;;2.50;;
42332;SDS011;27984;51.476;5.702;2023-04-12T09:16:57;11.23;;;2.67;;
42332;SDS011;27984;51.476;5.702;2023-04-12T09:19:29;10.48;;;2.85;;
42332;SDS011;27984;51.476;5.702;2023-04-12T09:21:56;7.72;;;2.35;;
42332;SDS011;27984;51.476;5.702;2023-04-12T09:24:22;8.23;;;2.70;;
42332;SDS011;27984;51.476;5.702;2023-04-12T09:27:00;7.57;;;2.90;;
42332;SDS011;27984;51.476;5.702;2023-04-12T09:29:27;6.40;;;2.60;;
42332;SDS011;27984;51.476;5.702;2023-04-12T09:31:54;7.50;;;2.85;;
42332;SDS011;27984;51.476;5.702;2023-04-12T09:34:33;6.35;;;2.67;;
42332;SDS011;27984;51.476;5.702;2023-04-12T09:37:02;8.88;;;3.00;;
42332;SDS011;27984;51.476;5.702;2023-04-12T09:39:37;9.00;;;2.90;;
42332;SDS011;27984;51.476;5.702;2023-04-12T09:42:04;7.18;;;2.95;;
42332;SDS011;27984;51.476;5.702;2023-04-12T09:44:33;11.05;;;3.90;;
42332;SDS011;27984;51.476;5.702;2023-04-12T09:46:59;11.00;;;3.60;;
42332;SDS011;27984;51.476;5.702;2023-04-12T09:49:42;12.45;;;3.65;;
42332;SDS011;27984;51.476;5.702;2023-04-12T09:52:12;12.15;;;3.58;;
42332;SDS011;27984;51.476;5.702;2023-04-12T09:54:42;12.63;;;3.45;;
42332;SDS011;27984;51.476;5.702;2023-04-12T09:57:08;11.48;;;3.47;;
42332;SDS011;27984;51.476;5.702;2023-04-12T09:59:36;11.95;;;3.17;;
42332;SDS011;27984;51.476;5.702;2023-04-12T10:02:04;13.25;;;3.58;;
42332;SDS011;27984;51.476;5.702;2023-04-12T10:04:41;12.55;;;3.50;;
42332;SDS011;27984;51.476;5.702;2023-04-12T10:07:07;14.05;;;4.07;;
42332;SDS011;27984;51.476;5.702;2023-04-12T10:09:33;13.57;;;3.33;;
42332;SDS011;27984;51.476;5.702;2023-04-12T10:12:00;14.18;;;4.35;;
42332;SDS011;27984;51.476;5.702;2023-04-12T10:14:27;11.02;;;3.58;;
42332;SDS011;27984;51.476;5.702;2023-04-12T10:16:57;14.65;;;3.97;;
42332;SDS011;27984;51.476;5.702;2023-04-12T10:19:24;12.27;;;3.75;;
42332;SDS011;27984;51.476;5.702;2023-04-12T10:21:51;16.13;;;3.70;;
42332;SDS011;27984;51.476;5.702;2023-04-12T10:24:19;18.92;;;4.00;;
42332;SDS011;27984;51.476;5.702;2023-04-12T10:26:49;16.65;;;3.95;;
42332;SDS011;27984;51.476;5.702;2023-04-12T10:29:22;15.70;;;4.35;;
42332;SDS011;27984;51.476;5.702;2023-04-12T10:31:55;17.60;;;4.20;;
42332;SDS011;27984;51.476;5.702;2023-04-12T10:34:29;15.52;;;3.72;;
42332;SDS011;27984;51.476;5.702;2023-04-12T10:36:59;11.55;;;3.70;;
42332;SDS011;27984;51.476;5.702;2023-04-12T10:39:39;15.02;;;4.13;;
42332;SDS011;27984;51.476;5.702;2023-04-12T10:44:46;15.73;;;4.40;;
42332;SDS011;27984;51.476;5.702;2023-04-12T10:47:11;14.00;;;4.53;;
42332;SDS011;27984;51.476;5.702;2023-04-12T10:49:37;14.60;;;4.68;;
42332;SDS011;27984;51.476;5.702;2023-04-12T10:54:29;16.15;;;4.63;;
42332;SDS011;27984;51.476;5.702;2023-04-12T10:56:55;22.38;;;5.25;;
42332;SDS011;27984;51.476;5.702;2023-04-12T10:59:21;20.90;;;5.60;;
42332;SDS011;27984;51.476;5.702;2023-04-12T11:04:31;20.50;;;5.68;;
42332;SDS011;27984;51.476;5.702;2023-04-12T11:07:07;20.38;;;5.40;;
42332;SDS011;27984;51.476;5.702;2023-04-12T11:14:32;19.17;;;4.70;;
42332;SDS011;27984;51.476;5.702;2023-04-12T11:19:38;20.67;;;4.60;;
42332;SDS011;27984;51.476;5.702;2023-04-12T11:22:06;17.02;;;4.53;;
42332;SDS011;27984;51.476;5.702;2023-04-12T11:24:34;15.63;;;4.05;;
42332;SDS011;27984;51.476;5.702;2023-04-12T11:27:06;19.60;;;4.07;;
42332;SDS011;27984;51.476;5.702;2023-04-12T11:29:32;22.40;;;4.72;;
42332;SDS011;27984;51.476;5.702;2023-04-12T11:31:58;23.00;;;5.13;;
42332;SDS011;27984;51.476;5.702;2023-04-12T11:34:30;22.42;;;4.97;;
42332;SDS011;27984;51.476;5.702;2023-04-12T11:36:56;19.20;;;5.20;;
42332;SDS011;27984;51.476;5.702;2023-04-12T11:39:23;15.20;;;5.85;;
42332;SDS011;27984;51.476;5.702;2023-04-12T11:41:52;18.05;;;6.00;;
42332;SDS011;27984;51.476;5.702;2023-04-12T11:44:18;18.10;;;6.03;;
42332;SDS011;27984;51.476;5.702;2023-04-12T11:46:45;20.73;;;6.53;;
42332;SDS011;27984;51.476;5.702;2023-04-12T11:49:15;19.67;;;7.30;;
42332;SDS011;27984;51.476;5.702;2023-04-12T11:51:42;27.42;;;7.10;;
42332;SDS011;27984;51.476;5.702;2023-04-12T11:54:08;19.38;;;6.85;;
42332;SDS011;27984;51.476;5.702;2023-04-12T11:56:35;21.05;;;7.57;;
42332;SDS011;27984;51.476;5.702;2023-04-12T11:59:01;24.15;;;6.70;;
42332;SDS011;27984;51.476;5.702;2023-04-12T12:01:26;15.07;;;5.80;;
42332;SDS011;27984;51.476;5.702;2023-04-12T12:03:53;22.83;;;5.47;;
42332;SDS011;27984;51.476;5.702;2023-04-12T12:06:19;15.20;;;5.25;;
42332;SDS011;27984;51.476;5.702;2023-04-12T12:08:45;17.30;;;5.07;;
42332;SDS011;27984;51.476;5.702;2023-04-12T12:11:12;11.20;;;5.00;;
42332;SDS011;27984;51.476;5.702;2023-04-12T12:13:46;14.88;;;4.68;;
42332;SDS011;27984;51.476;5.702;2023-04-12T12:16:12;13.77;;;4.78;;
42332;SDS011;27984;51.476;5.702;2023-04-12T12:18:38;11.95;;;3.92;;
42332;SDS011;27984;51.476;5.702;2023-04-12T12:21:07;13.32;;;4.35;;
42332;SDS011;27984;51.476;5.702;2023-04-12T12:23:33;12.38;;;4.63;;
42332;SDS011;27984;51.476;5.702;2023-04-12T12:26:00;12.82;;;3.88;;
42332;SDS011;27984;51.476;5.702;2023-04-12T12:28:29;14.75;;;3.83;;
42332;SDS011;27984;51.476;5.702;2023-04-12T12:30:58;11.80;;;3.58;;
42332;SDS011;27984;51.476;5.702;2023-04-12T12:33:23;13.73;;;3.92;;
42332;SDS011;27984;51.476;5.702;2023-04-12T12:35:59;16.88;;;4.70;;
42332;SDS011;27984;51.476;5.702;2023-04-12T12:38:32;12.98;;;4.03;;
42332;SDS011;27984;51.476;5.702;2023-04-12T12:41:12;14.55;;;4.47;;
42332;SDS011;27984;51.476;5.702;2023-04-12T12:43:45;19.95;;;4.50;;
42332;SDS011;27984;51.476;5.702;2023-04-12T12:46:11;10.25;;;3.47;;
42332;SDS011;27984;51.476;5.702;2023-04-12T12:48:38;18.90;;;4.78;;
42332;SDS011;27984;51.476;5.702;2023-04-12T12:51:04;14.25;;;3.75;;
42332;SDS011;27984;51.476;5.702;2023-04-12T12:53:30;15.93;;;4.47;;
42332;SDS011;27984;51.476;5.702;2023-04-12T12:55:56;15.95;;;4.13;;
42332;SDS011;27984;51.476;5.702;2023-04-12T12:58:21;13.60;;;3.60;;
42332;SDS011;27984;51.476;5.702;2023-04-12T13:00:47;16.25;;;4.10;;
42332;SDS011;27984;51.476;5.702;2023-04-12T13:03:12;15.38;;;3.70;;
42332;SDS011;27984;51.476;5.702;2023-04-12T13:05:38;10.80;;;3.08;;
42332;SDS011;27984;51.476;5.702;2023-04-12T13:08:03;10.65;;;2.83;;
42332;SDS011;27984;51.476;5.702;2023-04-12T13:10:29;10.43;;;2.50;;
42332;SDS011;27984;51.476;5.702;2023-04-12T13:12:55;13.35;;;2.60;;
42332;SDS011;27984;51.476;5.702;2023-04-12T13:15:20;12.07;;;2.88;;
42332;SDS011;27984;51.476;5.702;2023-04-12T13:17:47;11.57;;;3.25;;
42332;SDS011;27984;51.476;5.702;2023-04-12T13:20:12;13.73;;;2.97;;
42332;SDS011;27984;51.476;5.702;2023-04-12T13:22:38;13.85;;;3.08;;
42332;SDS011;27984;51.476;5.702;2023-04-12T13:25:03;10.02;;;2.53;;
42332;SDS011;27984;51.476;5.702;2023-04-12T13:27:29;16.40;;;3.35;;
42332;SDS011;27984;51.476;5.702;2023-04-12T13:29:55;12.70;;;3.08;;
42332;SDS011;27984;51.476;5.702;2023-04-12T13:32:20;13.18;;;3.00;;
42332;SDS011;27984;51.476;5.702;2023-04-12T13:34:46;10.27;;;2.97;;
42332;SDS011;27984;51.476;5.702;2023-04-12T13:37:11;12.40;;;3.17;;
42332;SDS011;27984;51.476;5.702;2023-04-12T13:39:37;12.48;;;2.92;;
42332;SDS011;27984;51.476;5.702;2023-04-12T13:42:04;10.18;;;3.40;;
42332;SDS011;27984;51.476;5.702;2023-04-12T13:44:30;10.48;;;3.38;;
42332;SDS011;27984;51.476;5.702;2023-04-12T13:46:55;11.50;;;3.45;;
42332;SDS011;27984;51.476;5.702;2023-04-12T13:49:21;12.95;;;4.07;;
42332;SDS011;27984;51.476;5.702;2023-04-12T13:51:46;6.45;;;1.90;;
42332;SDS011;27984;51.476;5.702;2023-04-12T13:54:13;8.80;;;1.70;;
42332;SDS011;27984;51.476;5.702;2023-04-12T13:56:39;4.70;;;1.40;;
42332;SDS011;27984;51.476;5.702;2023-04-12T13:59:05;3.40;;;1.25;;
42332;SDS011;27984;51.476;5.702;2023-04-12T14:01:30;5.15;;;1.67;;
42332;SDS011;27984;51.476;5.702;2023-04-12T14:03:56;3.00;;;1.50;;
42332;SDS011;27984;51.476;5.702;2023-04-12T14:06:22;4.20;;;1.50;;
42332;SDS011;27984;51.476;5.702;2023-04-12T14:08:48;3.80;;;1.65;;
42332;SDS011;27984;51.476;5.702;2023-04-12T14:11:13;5.00;;;1.80;;
42332;SDS011;27984;51.476;5.702;2023-04-12T14:13:39;5.10;;;2.08;;
42332;SDS011;27984;51.476;5.702;2023-04-12T14:16:04;7.45;;;2.30;;
42332;SDS011;27984;51.476;5.702;2023-04-12T14:18:31;4.45;;;2.08;;
42332;SDS011;27984;51.476;5.702;2023-04-12T14:20:56;5.57;;;1.80;;
42332;SDS011;27984;51.476;5.702;2023-04-12T14:23:23;4.95;;;2.03;;
42332;SDS011;27984;51.476;5.702;2023-04-12T14:25:49;7.90;;;2.13;;
42332;SDS011;27984;51.476;5.702;2023-04-12T14:28:16;3.13;;;1.50;;
42332;SDS011;27984;51.476;5.702;2023-04-12T14:30:45;4.50;;;1.92;;
42332;SDS011;27984;51.476;5.702;2023-04-12T14:33:14;4.28;;;1.70;;
42332;SDS011;27984;51.476;5.702;2023-04-12T14:35:40;3.08;;;1.70;;
42332;SDS011;27984;51.476;5.702;2023-04-12T14:38:06;3.15;;;1.75;;
42332;SDS011;27984;51.476;5.702;2023-04-12T14:40:32;3.20;;;1.83;;
42332;SDS011;27984;51.476;5.702;2023-04-12T14:42:58;3.25;;;1.58;;
42332;SDS011;27984;51.476;5.702;2023-04-12T14:45:24;4.93;;;2.10;;
42332;SDS011;27984;51.476;5.702;2023-04-12T14:47:50;5.32;;;2.00;;
42332;SDS011;27984;51.476;5.702;2023-04-12T14:50:16;5.50;;;2.30;;
42332;SDS011;27984;51.476;5.702;2023-04-12T14:52:42;8.43;;;2.63;;
42332;SDS011;27984;51.476;5.702;2023-04-12T14:55:07;3.67;;;2.03;;
42332;SDS011;27984;51.476;5.702;2023-04-12T14:57:34;7.95;;;2.55;;
42332;SDS011;27984;51.476;5.702;2023-04-12T15:00:00;5.70;;;2.63;;
42332;SDS011;27984;51.476;5.702;2023-04-12T15:02:26;7.75;;;3.28;;
42332;SDS011;27984;51.476;5.702;2023-04-12T15:04:52;6.78;;;2.40;;
42332;SDS011;27984;51.476;5.702;2023-04-12T15:07:18;6.07;;;2.15;;
42332;SDS011;27984;51.476;5.702;2023-04-12T15:09:44;3.88;;;2.03;;
42332;SDS011;27984;51.476;5.702;2023-04-12T15:12:09;6.55;;;2.38;;
42332;SDS011;27984;51.476;5.702;2023-04-12T15:14:35;8.20;;;2.55;;